createdAt,value
2023-01-15T00:02:03.204Z,4.57
2023-01-15T00:04:51.634Z,6.78
2023-01-15T00:07:37.426Z,9.27
2023-01-15T00:10:22.966Z,6.78
2023-01-15T00:13:08.762Z,4.53
2023-01-15T00:15:54.180Z,7.88
2023-01-15T00:18:40.009Z,7.05
2023-01-15T00:21:28.032Z,5.00
2023-01-15T00:24:32.057Z,4.75
2023-01-15T00:27:36.209Z,5.82
2023-01-15T00:30:21.728Z,4.63
2023-01-15T00:33:07.134Z,4.70
2023-01-15T00:35:52.459Z,10.00
2023-01-15T00:38:38.027Z,6.35
2023-01-15T00:41:23.625Z,6.45
2023-01-15T00:44:08.988Z,4.47
2023-01-15T00:46:54.815Z,5.75
2023-01-15T00:49:41.723Z,9.52
2023-01-15T00:52:27.301Z,7.57
2023-01-15T00:55:12.777Z,7.53
2023-01-15T00:57:57.992Z,6.43
2023-01-15T01:00:43.760Z,2.63
2023-01-15T01:03:29.728Z,4.38
2023-01-15T01:06:32.352Z,6.93
2023-01-15T01:09:21.887Z,14.38
2023-01-15T01:12:11.029Z,5.78
2023-01-15T01:14:56.425Z,4.45
2023-01-15T01:17:42.014Z,4.90
2023-01-15T01:20:27.287Z,4.60
2023-01-15T01:23:12.663Z,5.80
2023-01-15T01:25:58.132Z,4.43
2023-01-15T01:28:48.400Z,7.90
2023-01-15T01:31:45.300Z,2.58
2023-01-15T01:34:32.030Z,4.03
2023-01-15T01:37:17.533Z,5.78
2023-01-15T01:40:03.424Z,5.13
2023-01-15T01:42:49.043Z,7.00
2023-01-15T01:45:34.764Z,9.40
2023-01-15T01:48:26.714Z,10.15
2023-01-15T01:51:12.963Z,4.28
2023-01-15T01:53:59.854Z,11.13
2023-01-15T01:56:46.184Z,3.53
2023-01-15T01:59:32.894Z,5.15
2023-01-15T02:02:24.826Z,9.52
2023-01-15T02:05:19.963Z,4.60
2023-01-15T02:08:12.134Z,4.97
2023-01-15T02:10:57.814Z,12.13
2023-01-15T02:14:25.847Z,7.60
2023-01-15T02:17:14.172Z,5.43
2023-01-15T02:20:18.358Z,6.05
2023-01-15T02:23:07.003Z,9.77
2023-01-15T02:26:08.502Z,7.13
2023-01-15T02:29:10.390Z,7.32
2023-01-15T02:31:55.844Z,9.43
2023-01-15T02:35:03.603Z,7.95
2023-01-15T02:37:54.181Z,9.52
2023-01-15T02:40:41.162Z,6.80
2023-01-15T02:43:29.628Z,12.77
2023-01-15T02:46:16.645Z,8.57
2023-01-15T02:49:05.075Z,11.07
2023-01-15T02:52:01.002Z,11.70
2023-01-15T02:54:51.275Z,4.70
2023-01-15T02:57:38.934Z,4.13
2023-01-15T03:00:26.515Z,7.47
2023-01-15T03:03:14.956Z,13.38
2023-01-15T03:06:04.337Z,6.63
2023-01-15T03:08:50.694Z,4.72
2023-01-15T03:11:47.198Z,6.90
2023-01-15T03:15:06.933Z,7.85
2023-01-15T03:17:56.421Z,10.30
2023-01-15T03:20:53.174Z,6.80
2023-01-15T03:23:43.138Z,6.70
2023-01-15T03:26:29.329Z,4.18
2023-01-15T03:29:15.266Z,12.52
2023-01-15T03:32:01.103Z,4.55
2023-01-15T03:34:55.042Z,8.43
2023-01-15T03:37:40.896Z,4.97
2023-01-15T03:40:26.459Z,3.45
2023-01-15T03:43:34.297Z,7.63
2023-01-15T03:46:24.330Z,9.75
2023-01-15T03:49:12.407Z,8.40
2023-01-15T03:52:26.927Z,4.72
2023-01-15T03:55:18.879Z,6.45
2023-01-15T03:58:20.717Z,14.73
2023-01-15T04:01:11.092Z,4.45
2023-01-15T04:03:58.039Z,10.73
2023-01-15T04:06:44.568Z,7.38
2023-01-15T04:09:30.437Z,7.65
2023-01-15T04:12:15.833Z,3.72
2023-01-15T04:15:01.612Z,7.18
2023-01-15T04:17:46.985Z,7.30
2023-01-15T04:20:32.485Z,15.27
2023-01-15T04:23:18.297Z,11.65
2023-01-15T04:26:03.896Z,7.85
2023-01-15T04:28:49.303Z,5.35
2023-01-15T04:31:36.164Z,10.00
2023-01-15T04:34:21.499Z,6.45
2023-01-15T04:37:07.058Z,8.38
2023-01-15T04:39:52.516Z,3.67
2023-01-15T04:42:56.519Z,10.00
2023-01-15T04:45:44.400Z,7.05
2023-01-15T04:48:29.454Z,6.78
2023-01-15T04:51:15.197Z,6.60
2023-01-15T04:54:03.567Z,8.02
2023-01-15T04:56:51.699Z,5.47
2023-01-15T04:59:36.942Z,3.53
2023-01-15T05:02:22.764Z,4.65
2023-01-15T05:05:08.631Z,8.35
2023-01-15T05:07:54.155Z,9.82
2023-01-15T05:10:39.710Z,7.60
2023-01-15T05:13:25.267Z,5.28
2023-01-15T05:16:12.504Z,13.95
2023-01-15T05:19:02.163Z,8.88
2023-01-15T05:21:47.603Z,6.07
2023-01-15T05:24:33.235Z,4.03
2023-01-15T05:27:18.736Z,7.63
2023-01-15T05:30:04.576Z,5.80
2023-01-15T05:32:49.874Z,9.02
2023-01-15T05:35:35.251Z,5.50
2023-01-15T05:38:20.821Z,8.05
2023-01-15T05:41:27.842Z,5.18
2023-01-15T05:44:14.115Z,1.52
2023-01-15T05:47:06.750Z,2.33
2023-01-15T05:49:52.609Z,4.75
2023-01-15T05:52:37.932Z,7.80
2023-01-15T05:55:23.320Z,5.20
2023-01-15T05:58:08.827Z,3.35
2023-01-15T06:00:55.172Z,1.67
2023-01-15T06:03:41.940Z,2.42
2023-01-15T06:06:27.903Z,5.93
2023-01-15T06:09:14.057Z,9.63
2023-01-15T06:11:59.435Z,4.35
2023-01-15T06:14:44.869Z,11.02
2023-01-15T06:17:30.419Z,4.20
2023-01-15T06:20:15.813Z,4.47
2023-01-15T06:23:01.135Z,10.75
2023-01-15T06:25:46.801Z,4.40
2023-01-15T06:28:32.444Z,8.00
2023-01-15T06:31:20.554Z,4.32
2023-01-15T06:34:06.125Z,4.45
2023-01-15T06:36:51.642Z,5.65
2023-01-15T06:39:37.258Z,2.67
2023-01-15T06:42:41.194Z,3.40
2023-01-15T06:45:45.178Z,2.63
2023-01-15T06:48:46.742Z,6.65
2023-01-15T06:51:36.436Z,6.25
2023-01-15T06:54:22.658Z,8.30
2023-01-15T06:57:07.905Z,7.68
2023-01-15T06:59:53.615Z,4.57
2023-01-15T07:02:51.124Z,6.00
2023-01-15T07:05:39.303Z,4.25
2023-01-15T07:08:25.353Z,5.78
2023-01-15T07:11:25.179Z,4.32
2023-01-15T07:14:13.691Z,5.80
2023-01-15T07:17:34.366Z,4.07
2023-01-15T07:20:21.662Z,5.00
2023-01-15T07:23:07.181Z,5.82
2023-01-15T07:25:53.993Z,5.47
2023-01-15T07:28:39.293Z,4.55
2023-01-15T07:31:24.749Z,8.13
2023-01-15T07:34:10.473Z,4.13
2023-01-15T07:36:56.217Z,6.85
2023-01-15T07:39:41.860Z,7.55
2023-01-15T07:42:45.813Z,8.05
2023-01-15T07:45:49.360Z,5.72
2023-01-15T07:48:53.598Z,8.20
2023-01-15T07:51:39.092Z,6.05
2023-01-15T07:54:24.849Z,5.47
2023-01-15T07:57:11.265Z,6.63
2023-01-15T07:59:57.177Z,6.47
2023-01-15T08:02:42.707Z,11.63
2023-01-15T08:05:28.192Z,5.97
2023-01-15T08:08:18.279Z,11.68
2023-01-15T08:11:22.216Z,4.75
2023-01-15T08:14:28.820Z,9.77
2023-01-15T08:17:14.348Z,11.45
2023-01-15T08:20:00.076Z,10.95
2023-01-15T08:22:46.153Z,6.35
2023-01-15T08:25:31.859Z,10.52
2023-01-15T08:28:17.389Z,9.98
2023-01-15T08:31:05.161Z,7.68
2023-01-15T08:33:50.583Z,6.70
2023-01-15T08:36:36.450Z,4.68
2023-01-15T08:39:21.967Z,10.32
2023-01-15T08:42:08.356Z,4.38
2023-01-15T08:44:53.909Z,7.88
2023-01-15T08:47:39.409Z,5.22
2023-01-15T08:50:25.006Z,6.85
2023-01-15T08:53:10.332Z,7.10
2023-01-15T08:55:56.300Z,9.23
2023-01-15T08:58:42.338Z,12.07
2023-01-15T09:01:27.951Z,6.57
2023-01-15T09:04:19.793Z,8.93
2023-01-15T09:07:05.268Z,8.70
2023-01-15T09:09:50.906Z,9.82
2023-01-15T09:12:36.663Z,6.85
2023-01-15T09:15:21.875Z,7.57
2023-01-15T09:18:07.582Z,8.40
2023-01-15T09:20:53.167Z,9.88
2023-01-15T09:23:38.522Z,8.27
2023-01-15T09:26:30.452Z,9.38
2023-01-15T09:29:15.758Z,8.90
2023-01-15T09:32:02.548Z,5.25
2023-01-15T09:34:47.921Z,9.45
2023-01-15T09:37:33.423Z,8.63
2023-01-15T09:40:44.686Z,8.98
2023-01-15T09:43:50.140Z,6.57
2023-01-15T09:46:42.729Z,7.25
2023-01-15T09:49:28.181Z,7.47
2023-01-15T09:52:22.699Z,11.20
2023-01-15T09:55:20.845Z,6.22
2023-01-15T09:58:10.332Z,13.55
2023-01-15T10:00:55.635Z,8.70
2023-01-15T10:03:51.256Z,11.95
2023-01-15T10:07:00.461Z,9.02
2023-01-15T10:09:53.385Z,6.55
2023-01-15T10:12:44.718Z,6.30
2023-01-15T10:15:44.923Z,5.88
2023-01-15T10:18:30.860Z,10.77
2023-01-15T10:21:38.995Z,12.85
2023-01-15T10:24:38.561Z,6.25
2023-01-15T10:27:27.869Z,9.23
2023-01-15T10:30:25.331Z,6.75
2023-01-15T10:33:49.092Z,6.85
2023-01-15T10:36:52.304Z,8.05
2023-01-15T10:39:51.071Z,9.40
2023-01-15T10:42:48.775Z,12.15
2023-01-15T10:45:41.297Z,9.80
2023-01-15T10:48:40.075Z,7.60
2023-01-15T10:51:50.002Z,10.00
2023-01-15T10:54:39.108Z,10.27
2023-01-15T10:58:01.839Z,10.10
2023-01-15T11:01:00.501Z,11.27
2023-01-15T11:03:46.708Z,13.32
2023-01-15T11:06:33.414Z,8.18
2023-01-15T11:09:34.746Z,11.45
2023-01-15T11:12:22.087Z,8.85
2023-01-15T11:15:40.646Z,7.95
2023-01-15T11:18:47.515Z,11.43
2023-01-15T11:21:33.520Z,11.25
2023-01-15T11:24:19.268Z,11.50
2023-01-15T11:27:06.886Z,8.98
2023-01-15T11:29:58.299Z,13.30
2023-01-15T11:32:54.893Z,8.55
2023-01-15T11:36:01.064Z,9.88
2023-01-15T11:38:49.710Z,13.32
2023-01-15T11:41:54.296Z,10.18
2023-01-15T11:44:58.455Z,12.13
2023-01-15T11:48:15.240Z,9.32
2023-01-15T11:51:08.744Z,10.20
2023-01-15T11:54:02.077Z,10.77
2023-01-15T11:56:48.515Z,11.07
2023-01-15T11:59:35.316Z,8.25
2023-01-15T12:02:44.080Z,18.58
2023-01-15T12:05:35.536Z,9.65
2023-01-15T12:08:45.869Z,6.90
2023-01-15T12:11:53.101Z,9.05
2023-01-15T12:15:04.159Z,10.02
2023-01-15T12:17:52.985Z,9.43
2023-01-15T12:20:52.007Z,9.25
2023-01-15T12:23:57.084Z,8.43
2023-01-15T12:27:12.438Z,5.50
2023-01-15T12:30:05.008Z,12.95
2023-01-15T12:33:13.588Z,6.10
2023-01-15T12:36:07.240Z,8.50
2023-01-15T12:39:07.815Z,9.40
2023-01-15T12:42:23.434Z,9.82
2023-01-15T12:45:36.890Z,9.27
2023-01-15T12:48:32.004Z,13.88
2023-01-15T12:51:24.489Z,9.35
2023-01-15T12:54:19.982Z,7.18
2023-01-15T12:57:28.638Z,10.98
2023-01-15T13:00:35.826Z,9.73
2023-01-15T13:03:30.359Z,10.88
2023-01-15T13:06:17.836Z,7.07
2023-01-15T13:09:16.989Z,14.98
2023-01-15T13:12:02.556Z,10.40
2023-01-15T13:14:48.290Z,9.38
2023-01-15T13:18:03.339Z,5.30
2023-01-15T13:20:52.103Z,4.55
2023-01-15T13:23:56.558Z,10.18
2023-01-15T13:27:13.528Z,11.45
2023-01-15T13:30:37.135Z,7.90
2023-01-15T13:33:45.919Z,6.22
2023-01-15T13:36:46.261Z,7.45
2023-01-15T13:39:40.442Z,5.45
2023-01-15T13:42:33.206Z,7.95
2023-01-15T13:45:44.134Z,12.93
2023-01-15T13:48:50.880Z,10.07
2023-01-15T13:51:43.587Z,9.95
2023-01-15T13:54:31.102Z,8.95
2023-01-15T13:57:33.793Z,9.23
2023-01-15T14:00:39.657Z,6.55
2023-01-15T14:03:36.228Z,14.73
2023-01-15T14:06:22.005Z,8.88
2023-01-15T14:09:12.420Z,12.20
2023-01-15T14:12:21.183Z,12.13
2023-01-15T14:15:26.615Z,7.38
2023-01-15T14:18:36.976Z,14.15
2023-01-15T14:21:44.424Z,7.10
2023-01-15T14:24:46.595Z,17.23
2023-01-15T14:28:12.366Z,8.68
2023-01-15T14:31:32.120Z,8.20
2023-01-15T14:34:44.447Z,8.82
2023-01-15T14:37:52.505Z,10.90
2023-01-15T14:41:20.942Z,11.57
2023-01-15T14:44:08.615Z,6.80
2023-01-15T14:47:01.758Z,6.18
2023-01-15T14:49:49.913Z,7.45
2023-01-15T14:52:36.428Z,8.45
2023-01-15T14:55:22.702Z,6.93
2023-01-15T14:58:36.977Z,10.48
2023-01-15T15:02:05.680Z,10.23
2023-01-15T15:04:54.859Z,10.60
2023-01-15T15:07:56.963Z,8.05
2023-01-15T15:11:01.704Z,12.50
2023-01-15T15:13:49.356Z,11.20
2023-01-15T15:16:45.615Z,9.25
2023-01-15T15:19:45.570Z,6.88
2023-01-15T15:22:32.927Z,13.80
2023-01-15T15:25:27.321Z,6.32
2023-01-15T15:28:13.127Z,9.07
2023-01-15T15:31:01.499Z,6.72
2023-01-15T15:33:52.876Z,9.20
2023-01-15T15:36:46.425Z,10.65
2023-01-15T15:39:45.304Z,8.45
2023-01-15T15:42:53.001Z,7.75
2023-01-15T15:45:57.413Z,13.38
2023-01-15T15:48:53.423Z,8.77
2023-01-15T15:51:45.102Z,7.93
2023-01-15T15:54:32.916Z,8.93
2023-01-15T15:57:20.411Z,8.00
2023-01-15T16:00:15.904Z,12.27
2023-01-15T16:03:07.308Z,9.90
2023-01-15T16:05:58.817Z,11.07
2023-01-15T16:08:53.679Z,20.55
2023-01-15T16:11:41.185Z,23.73
2023-01-15T16:14:28.511Z,21.27
2023-01-15T16:17:15.365Z,16.85
2023-01-15T16:20:01.353Z,16.25
2023-01-15T16:23:02.466Z,13.68
2023-01-15T16:26:18.368Z,20.00
2023-01-15T16:29:07.295Z,19.30
2023-01-15T16:31:56.148Z,16.88
2023-01-15T16:34:42.119Z,18.10
2023-01-15T16:37:32.968Z,14.43
2023-01-15T16:40:27.681Z,17.83
2023-01-15T16:43:32.261Z,13.40
2023-01-15T16:46:24.444Z,12.55
2023-01-15T16:49:22.223Z,14.68
2023-01-15T16:52:45.733Z,12.93
2023-01-15T16:55:34.428Z,10.63
2023-01-15T16:58:22.426Z,13.32
2023-01-15T17:01:35.135Z,18.90
2023-01-15T17:04:31.672Z,10.73
2023-01-15T17:07:23.009Z,13.60
2023-01-15T17:10:25.635Z,13.82
2023-01-15T17:13:23.201Z,14.55
2023-01-15T17:16:23.111Z,11.25
2023-01-15T17:19:11.655Z,11.68
2023-01-15T17:21:57.319Z,10.55
2023-01-15T17:24:55.015Z,9.65
2023-01-15T17:27:40.255Z,14.10
2023-01-15T17:30:34.923Z,11.52
2023-01-15T17:33:21.610Z,12.70
2023-01-15T17:36:08.725Z,12.20
2023-01-15T17:38:55.399Z,9.00
2023-01-15T17:41:41.478Z,10.43
2023-01-15T17:44:27.495Z,9.82
2023-01-15T17:47:16.067Z,9.82
2023-01-15T17:50:01.677Z,9.68
2023-01-15T17:52:48.111Z,10.98
2023-01-15T17:55:52.171Z,9.32
2023-01-15T17:58:56.067Z,14.07
2023-01-15T18:02:02.783Z,8.73
2023-01-15T18:05:12.388Z,7.82
2023-01-15T18:07:59.218Z,13.10
2023-01-15T18:10:45.348Z,14.43
2023-01-15T18:13:31.175Z,13.15
2023-01-15T18:16:17.440Z,10.30
2023-01-15T18:19:03.179Z,13.40
2023-01-15T18:21:49.009Z,13.30
2023-01-15T18:24:35.044Z,13.85
2023-01-15T18:27:20.723Z,10.20
2023-01-15T18:30:06.899Z,6.88
2023-01-15T18:32:52.714Z,10.02
2023-01-15T18:35:38.207Z,9.15
2023-01-15T18:38:23.345Z,11.00
2023-01-15T18:41:34.503Z,12.52
2023-01-15T18:44:41.502Z,6.45
2023-01-15T18:47:27.218Z,11.85
2023-01-15T18:50:12.592Z,6.78
2023-01-15T18:52:58.115Z,10.60
2023-01-15T18:55:43.938Z,11.57
2023-01-15T18:58:29.557Z,10.57
2023-01-15T19:01:15.952Z,8.68
2023-01-15T19:04:01.847Z,6.47
2023-01-15T19:06:47.629Z,11.82
2023-01-15T19:09:33.104Z,13.48
2023-01-15T19:12:19.930Z,8.57
2023-01-15T19:15:25.397Z,8.50
2023-01-15T19:18:30.008Z,12.90
2023-01-15T19:21:17.851Z,9.38
2023-01-15T19:24:03.569Z,9.57
2023-01-15T19:26:48.747Z,12.07
2023-01-15T19:29:34.373Z,16.52
2023-01-15T19:32:20.003Z,8.38
2023-01-15T19:35:05.592Z,8.15
2023-01-15T19:37:53.184Z,8.85
2023-01-15T19:40:42.808Z,14.95
2023-01-15T19:43:46.734Z,14.32
2023-01-15T19:46:50.882Z,7.80
2023-01-15T19:49:55.900Z,11.68
2023-01-15T19:52:41.706Z,14.02
2023-01-15T19:55:29.378Z,9.80
2023-01-15T19:58:15.807Z,9.55
2023-01-15T20:01:02.134Z,15.60
2023-01-15T20:03:47.725Z,7.32
2023-01-15T20:06:33.332Z,10.65
2023-01-15T20:09:18.851Z,9.20
2023-01-15T20:12:23.448Z,9.77
2023-01-15T20:15:09.664Z,11.48
2023-01-15T20:17:56.423Z,8.90
2023-01-15T20:20:41.694Z,9.57
2023-01-15T20:23:27.344Z,10.68
2023-01-15T20:26:14.670Z,7.55
2023-01-15T20:29:00.118Z,10.00
2023-01-15T20:31:45.819Z,6.85
2023-01-15T20:34:32.241Z,7.45
2023-01-15T20:37:18.181Z,11.27
2023-01-15T20:40:03.983Z,15.13
2023-01-15T20:43:08.284Z,12.93
2023-01-15T20:45:53.752Z,13.40
2023-01-15T20:48:57.503Z,11.00
2023-01-15T20:51:45.223Z,9.18
2023-01-15T20:54:30.821Z,10.57
2023-01-15T20:57:16.344Z,14.65
2023-01-15T21:00:02.520Z,13.52
2023-01-15T21:02:48.265Z,17.33
2023-01-15T21:05:33.571Z,13.82
2023-01-15T21:08:20.944Z,11.07
2023-01-15T21:11:06.605Z,10.75
2023-01-15T21:13:52.059Z,12.10
2023-01-15T21:16:37.740Z,15.82
2023-01-15T21:19:23.569Z,22.88
2023-01-15T21:22:09.015Z,14.43
2023-01-15T21:24:54.729Z,23.13
2023-01-15T21:27:40.867Z,17.85
2023-01-15T21:30:26.175Z,18.50
2023-01-15T21:33:11.864Z,16.80
2023-01-15T21:35:57.335Z,22.70
2023-01-15T21:38:42.947Z,10.93
2023-01-15T21:41:47.467Z,18.15
2023-01-15T21:44:33.019Z,18.50
2023-01-15T21:47:19.792Z,19.63
2023-01-15T21:50:05.937Z,17.88
2023-01-15T21:52:52.194Z,14.15
2023-01-15T21:55:37.979Z,16.15
2023-01-15T21:58:23.728Z,17.88
2023-01-15T22:01:14.784Z,16.45
2023-01-15T22:04:00.715Z,11.85
2023-01-15T22:06:46.641Z,17.58
2023-01-15T22:09:31.885Z,12.85
2023-01-15T22:12:17.994Z,15.32
2023-01-15T22:15:03.420Z,16.35
2023-01-15T22:17:51.608Z,16.40
2023-01-15T22:20:37.542Z,12.95
2023-01-15T22:23:22.923Z,16.27
2023-01-15T22:26:22.158Z,18.58
2023-01-15T22:29:09.391Z,11.07
2023-01-15T22:31:56.077Z,14.32
2023-01-15T22:34:43.074Z,19.45
2023-01-15T22:37:28.656Z,14.43
2023-01-15T22:40:14.123Z,14.95
2023-01-15T22:42:59.825Z,16.77
2023-01-15T22:45:45.521Z,12.65
2023-01-15T22:48:31.032Z,12.80
2023-01-15T22:51:16.566Z,15.48
2023-01-15T22:54:02.242Z,21.90
2023-01-15T22:56:48.132Z,16.38
2023-01-15T22:59:33.555Z,17.60
2023-01-15T23:02:39.223Z,14.10
2023-01-15T23:05:25.025Z,15.77
2023-01-15T23:08:10.455Z,16.55
2023-01-15T23:10:56.343Z,23.23
2023-01-15T23:13:42.450Z,16.20
2023-01-15T23:16:27.689Z,19.63
2023-01-15T23:19:14.234Z,16.85
2023-01-15T23:22:00.602Z,19.55
2023-01-15T23:24:46.218Z,14.65
2023-01-15T23:27:31.883Z,13.20
2023-01-15T23:30:18.212Z,16.88
2023-01-15T23:33:03.810Z,29.42
2023-01-15T23:35:49.720Z,14.25
2023-01-15T23:38:36.616Z,16.40
2023-01-15T23:41:44.101Z,14.07
2023-01-15T23:44:47.968Z,13.07
2023-01-15T23:47:33.469Z,17.88
2023-01-15T23:50:19.201Z,19.65
2023-01-15T23:53:05.537Z,13.32
2023-01-15T23:55:51.124Z,18.58
2023-01-15T23:58:36.487Z,17.65
